sensor_id;sensor_type;location;lat;lon;timestamp;temperature;humidity
13211;DHT22;6670;51.53087800;7.23266500;2022-10-31T00:01:15;17.40;99.90
13211;DHT22;6670;51.53087800;7.23266500;2022-10-31T00:03:43;17.30;99.90
13211;DHT22;6670;51.53087800;7.23266500;2022-10-31T00:06:10;17.30;99.90
13211;DHT22;6670;51.53087800;7.23266500;2022-10-31T00:08:38;17.20;99.90
13211;DHT22;6670;51.53087800;7.23266500;2022-10-31T00:11:08;17.10;99.90
13211;DHT22;6670;51.53087800;7.23266500;2022-10-31T00:13:37;17.20;99.90
13211;DHT22;6670;51.53087800;7.23266500;2022-10-31T00:16:06;17.20;99.90
13211;DHT22;6670;51.53087800;7.23266500;2022-10-31T00:18:39;17.20;99.90
13211;DHT22;6670;51.53087800;7.23266500;2022-10-31T00:21:07;17.10;99.90
13211;DHT22;6670;51.53087800;7.23266500;2022-10-31T00:23:34;17.20;99.90
13211;DHT22;6670;51.53087800;7.23266500;2022-10-31T00:26:02;17.10;99.90
13211;DHT22;6670;51.53087800;7.23266500;2022-10-31T00:28:30;17.20;99.90
13211;DHT22;6670;51.53087800;7.23266500;2022-10-31T00:31:00;17.30;99.90
13211;DHT22;6670;51.53087800;7.23266500;2022-10-31T00:33:28;17.40;99.90
13211;DHT22;6670;51.53087800;7.23266500;2022-10-31T00:35:56;17.40;99.90
13211;DHT22;6670;51.53087800;7.23266500;2022-10-31T00:38:23;17.30;99.90
13211;DHT22;6670;51.53087800;7.23266500;2022-10-31T00:40:51;17.30;99.90
13211;DHT22;6670;51.53087800;7.23266500;2022-10-31T00:43:18;17.30;99.90
13211;DHT22;6670;51.53087800;7.23266500;2022-10-31T00:45:46;17.30;99.90
13211;DHT22;6670;51.53087800;7.23266500;2022-10-31T00:48:15;17.40;99.90
13211;DHT22;6670;51.53087800;7.23266500;2022-10-31T00:50:42;17.30;99.90
13211;DHT22;6670;51.53087800;7.23266500;2022-10-31T00:53:10;17.30;99.90
13211;DHT22;6670;51.53087800;7.23266500;2022-10-31T00:55:37;17.30;99.90
13211;DHT22;6670;51.53087800;7.23266500;2022-10-31T00:58:05;17.30;99.90
13211;DHT22;6670;51.53087800;7.23266500;2022-10-31T01:00:32;17.10;99.90
13211;DHT22;6670;51.53087800;7.23266500;2022-10-31T01:03:01;17.20;99.90
13211;DHT22;6670;51.53087800;7.23266500;2022-10-31T01:05:29;17.10;99.90
13211;DHT22;6670;51.53087800;7.23266500;2022-10-31T01:07:57;17.10;99.90
13211;DHT22;6670;51.53087800;7.23266500;2022-10-31T01:10:26;17.10;99.90
13211;DHT22;6670;51.53087800;7.23266500;2022-10-31T01:12:54;17.10;99.90
13211;DHT22;6670;51.53087800;7.23266500;2022-10-31T01:15:22;17.00;99.90
13211;DHT22;6670;51.53087800;7.23266500;2022-10-31T01:17:50;17.00;99.90
13211;DHT22;6670;51.53087800;7.23266500;2022-10-31T01:20:18;17.00;99.90
13211;DHT22;6670;51.53087800;7.23266500;2022-10-31T01:23:17;17.00;99.90
13211;DHT22;6670;51.53087800;7.23266500;2022-10-31T01:25:46;17.10;99.90
13211;DHT22;6670;51.53087800;7.23266500;2022-10-31T01:28:14;17.00;99.90
13211;DHT22;6670;51.53087800;7.23266500;2022-10-31T01:30:42;17.00;99.90
13211;DHT22;6670;51.53087800;7.23266500;2022-10-31T01:33:09;16.90;99.90
13211;DHT22;6670;51.53087800;7.23266500;2022-10-31T01:35:36;16.70;99.90
13211;DHT22;6670;51.53087800;7.23266500;2022-10-31T01:38:04;16.90;99.90
13211;DHT22;6670;51.53087800;7.23266500;2022-10-31T01:40:33;16.90;99.90
13211;DHT22;6670;51.53087800;7.23266500;2022-10-31T01:43:00;17.00;99.90
13211;DHT22;6670;51.53087800;7.23266500;2022-10-31T01:45:27;17.10;99.90
13211;DHT22;6670;51.53087800;7.23266500;2022-10-31T01:47:55;17.00;99.90
13211;DHT22;6670;51.53087800;7.23266500;2022-10-31T01:50:28;16.90;99.90
13211;DHT22;6670;51.53087800;7.23266500;2022-10-31T01:52:57;16.90;99.90
13211;DHT22;6670;51.53087800;7.23266500;2022-10-31T01:55:27;16.80;99.90
13211;DHT22;6670;51.53087800;7.23266500;2022-10-31T01:57:59;17.00;99.90
13211;DHT22;6670;51.53087800;7.23266500;2022-10-31T02:00:28;17.10;99.90
13211;DHT22;6670;51.53087800;7.23266500;2022-10-31T02:02:56;17.10;99.90
13211;DHT22;6670;51.53087800;7.23266500;2022-10-31T02:05:28;16.90;99.90
13211;DHT22;6670;51.53087800;7.23266500;2022-10-31T02:07:58;16.90;99.90
13211;DHT22;6670;51.53087800;7.23266500;2022-10-31T02:10:31;16.90;99.90
13211;DHT22;6670;51.53087800;7.23266500;2022-10-31T02:13:03;17.00;99.90
13211;DHT22;6670;51.53087800;7.23266500;2022-10-31T02:15:31;17.00;99.90
13211;DHT22;6670;51.53087800;7.23266500;2022-10-31T02:17:59;17.00;99.90
13211;DHT22;6670;51.53087800;7.23266500;2022-10-31T02:20:32;16.90;99.90
13211;DHT22;6670;51.53087800;7.23266500;2022-10-31T02:23:27;16.90;99.90
13211;DHT22;6670;51.53087800;7.23266500;2022-10-31T02:26:23;16.90;99.90
13211;DHT22;6670;51.53087800;7.23266500;2022-10-31T02:32:18;16.70;99.90
13211;DHT22;6670;51.53087800;7.23266500;2022-10-31T02:34:54;16.60;99.90
13211;DHT22;6670;51.53087800;7.23266500;2022-10-31T02:37:27;16.60;99.90
13211;DHT22;6670;51.53087800;7.23266500;2022-10-31T02:40:04;16.60;99.90
13211;DHT22;6670;51.53087800;7.23266500;2022-10-31T02:42:57;16.50;99.90
13211;DHT22;6670;51.53087800;7.23266500;2022-10-31T02:45:29;16.60;99.90
13211;DHT22;6670;51.53087800;7.23266500;2022-10-31T02:48:03;16.60;99.90
13211;DHT22;6670;51.53087800;7.23266500;2022-10-31T02:50:39;16.60;99.90
13211;DHT22;6670;51.53087800;7.23266500;2022-10-31T02:53:09;16.50;99.90
13211;DHT22;6670;51.53087800;7.23266500;2022-10-31T02:55:55;16.40;99.90
13211;DHT22;6670;51.53087800;7.23266500;2022-10-31T02:58:26;16.40;99.90
13211;DHT22;6670;51.53087800;7.23266500;2022-10-31T03:04:21;16.50;99.90
13211;DHT22;6670;51.53087800;7.23266500;2022-10-31T03:06:56;16.40;99.90
13211;DHT22;6670;51.53087800;7.23266500;2022-10-31T03:09:29;16.20;99.90
13211;DHT22;6670;51.53087800;7.23266500;2022-10-31T03:12:05;16.20;99.90
13211;DHT22;6670;51.53087800;7.23266500;2022-10-31T03:14:40;16.20;99.90
13211;DHT22;6670;51.53087800;7.23266500;2022-10-31T03:17:12;16.20;99.90
13211;DHT22;6670;51.53087800;7.23266500;2022-10-31T03:19:47;16.20;99.90
13211;DHT22;6670;51.53087800;7.23266500;2022-10-31T03:22:17;16.30;99.90
13211;DHT22;6670;51.53087800;7.23266500;2022-10-31T03:24:47;16.30;99.90
13211;DHT22;6670;51.53087800;7.23266500;2022-10-31T03:27:20;16.30;99.90
13211;DHT22;6670;51.53087800;7.23266500;2022-10-31T03:29:50;16.40;99.90
13211;DHT22;6670;51.53087800;7.23266500;2022-10-31T03:32:24;16.50;99.90
13211;DHT22;6670;51.53087800;7.23266500;2022-10-31T03:34:57;16.40;99.90
13211;DHT22;6670;51.53087800;7.23266500;2022-10-31T03:37:29;16.30;99.90
13211;DHT22;6670;51.53087800;7.23266500;2022-10-31T03:40:00;16.30;99.90
13211;DHT22;6670;51.53087800;7.23266500;2022-10-31T03:42:32;16.20;99.90
13211;DHT22;6670;51.53087800;7.23266500;2022-10-31T03:45:04;16.20;99.90
13211;DHT22;6670;51.53087800;7.23266500;2022-10-31T03:47:33;16.10;99.90
13211;DHT22;6670;51.53087800;7.23266500;2022-10-31T03:50:04;15.80;99.90
13211;DHT22;6670;51.53087800;7.23266500;2022-10-31T03:52:36;15.70;99.90
13211;DHT22;6670;51.53087800;7.23266500;2022-10-31T03:55:13;15.80;99.90
13211;DHT22;6670;51.53087800;7.23266500;2022-10-31T03:57:46;15.80;99.90
13211;DHT22;6670;51.53087800;7.23266500;2022-10-31T04:00:16;15.90;99.90
13211;DHT22;6670;51.53087800;7.23266500;2022-10-31T04:02:51;15.90;99.90
13211;DHT22;6670;51.53087800;7.23266500;2022-10-31T04:05:22;15.90;99.90
13211;DHT22;6670;51.53087800;7.23266500;2022-10-31T04:07:54;16.00;99.90
13211;DHT22;6670;51.53087800;7.23266500;2022-10-31T04:10:23;15.90;99.90
13211;DHT22;6670;51.53087800;7.23266500;2022-10-31T04:12:57;15.80;99.90
13211;DHT22;6670;51.53087800;7.23266500;2022-10-31T04:15:31;15.70;99.90
13211;DHT22;6670;51.53087800;7.23266500;2022-10-31T04:18:00;15.90;99.90
13211;DHT22;6670;51.53087800;7.23266500;2022-10-31T04:20:34;16.00;99.90
13211;DHT22;6670;51.53087800;7.23266500;2022-10-31T04:23:05;16.10;99.90
13211;DHT22;6670;51.53087800;7.23266500;2022-10-31T04:25:38;16.00;99.90
13211;DHT22;6670;51.53087800;7.23266500;2022-10-31T04:28:05;16.00;99.90
13211;DHT22;6670;51.53087800;7.23266500;2022-10-31T04:30:33;15.90;99.90
13211;DHT22;6670;51.53087800;7.23266500;2022-10-31T04:33:00;15.90;99.90
13211;DHT22;6670;51.53087800;7.23266500;2022-10-31T04:35:28;15.90;99.90
13211;DHT22;6670;51.53087800;7.23266500;2022-10-31T04:37:57;15.80;99.90
13211;DHT22;6670;51.53087800;7.23266500;2022-10-31T04:40:35;15.50;99.90
13211;DHT22;6670;51.53087800;7.23266500;2022-10-31T04:43:15;15.60;99.90
13211;DHT22;6670;51.53087800;7.23266500;2022-10-31T04:45:44;15.40;99.90
13211;DHT22;6670;51.53087800;7.23266500;2022-10-31T04:48:12;15.30;99.90
13211;DHT22;6670;51.53087800;7.23266500;2022-10-31T04:50:42;15.20;99.90
13211;DHT22;6670;51.53087800;7.23266500;2022-10-31T04:53:11;15.30;99.90
13211;DHT22;6670;51.53087800;7.23266500;2022-10-31T04:55:58;15.30;99.90
13211;DHT22;6670;51.53087800;7.23266500;2022-10-31T04:58:36;15.20;99.90
13211;DHT22;6670;51.53087800;7.23266500;2022-10-31T05:01:08;15.10;99.90
13211;DHT22;6670;51.53087800;7.23266500;2022-10-31T05:03:35;15.10;99.90
13211;DHT22;6670;51.53087800;7.23266500;2022-10-31T05:06:05;15.10;99.90
13211;DHT22;6670;51.53087800;7.23266500;2022-10-31T05:08:34;15.00;99.90
13211;DHT22;6670;51.53087800;7.23266500;2022-10-31T05:11:05;15.00;99.90
13211;DHT22;6670;51.53087800;7.23266500;2022-10-31T05:13:33;14.90;99.90
13211;DHT22;6670;51.53087800;7.23266500;2022-10-31T05:16:12;14.60;99.90
13211;DHT22;6670;51.53087800;7.23266500;2022-10-31T05:18:40;14.40;99.90
13211;DHT22;6670;51.53087800;7.23266500;2022-10-31T05:21:26;14.20;99.90
13211;DHT22;6670;51.53087800;7.23266500;2022-10-31T05:23:59;14.20;99.90
13211;DHT22;6670;51.53087800;7.23266500;2022-10-31T05:26:28;14.30;99.90
13211;DHT22;6670;51.53087800;7.23266500;2022-10-31T05:28:55;14.50;99.90
13211;DHT22;6670;51.53087800;7.23266500;2022-10-31T05:31:23;14.70;99.90
13211;DHT22;6670;51.53087800;7.23266500;2022-10-31T05:33:52;14.80;99.90
13211;DHT22;6670;51.53087800;7.23266500;2022-10-31T05:36:38;14.80;99.90
13211;DHT22;6670;51.53087800;7.23266500;2022-10-31T05:39:17;14.70;99.90
13211;DHT22;6670;51.53087800;7.23266500;2022-10-31T05:41:55;14.80;99.90
13211;DHT22;6670;51.53087800;7.23266500;2022-10-31T05:44:26;15.00;99.90
13211;DHT22;6670;51.53087800;7.23266500;2022-10-31T05:47:04;15.10;99.90
13211;DHT22;6670;51.53087800;7.23266500;2022-10-31T05:50:10;15.00;99.90
13211;DHT22;6670;51.53087800;7.23266500;2022-10-31T05:52:54;15.00;99.90
13211;DHT22;6670;51.53087800;7.23266500;2022-10-31T05:55:32;14.90;99.90
13211;DHT22;6670;51.53087800;7.23266500;2022-10-31T05:58:14;15.00;99.90
13211;DHT22;6670;51.53087800;7.23266500;2022-10-31T06:00:49;15.00;99.90
13211;DHT22;6670;51.53087800;7.23266500;2022-10-31T06:03:16;14.90;99.90
13211;DHT22;6670;51.53087800;7.23266500;2022-10-31T06:05:49;14.80;99.90
13211;DHT22;6670;51.53087800;7.23266500;2022-10-31T06:08:17;14.70;99.90
13211;DHT22;6670;51.53087800;7.23266500;2022-10-31T06:10:48;14.60;99.90
13211;DHT22;6670;51.53087800;7.23266500;2022-10-31T06:13:22;14.70;99.90
13211;DHT22;6670;51.53087800;7.23266500;2022-10-31T06:16:29;14.80;99.90
13211;DHT22;6670;51.53087800;7.23266500;2022-10-31T06:19:02;14.70;99.90
13211;DHT22;6670;51.53087800;7.23266500;2022-10-31T06:21:31;14.60;99.90
13211;DHT22;6670;51.53087800;7.23266500;2022-10-31T06:24:04;14.60;99.90
13211;DHT22;6670;51.53087800;7.23266500;2022-10-31T06:27:23;14.60;99.90
13211;DHT22;6670;51.53087800;7.23266500;2022-10-31T06:29:51;14.70;99.90
13211;DHT22;6670;51.53087800;7.23266500;2022-10-31T06:32:31;14.70;99.90
13211;DHT22;6670;51.53087800;7.23266500;2022-10-31T06:34:58;14.90;99.90
13211;DHT22;6670;51.53087800;7.23266500;2022-10-31T06:37:38;15.00;99.90
13211;DHT22;6670;51.53087800;7.23266500;2022-10-31T06:40:19;15.20;99.90
13211;DHT22;6670;51.53087800;7.23266500;2022-10-31T06:43:08;15.40;99.90
13211;DHT22;6670;51.53087800;7.23266500;2022-10-31T06:45:38;15.30;99.90
13211;DHT22;6670;51.53087800;7.23266500;2022-10-31T06:48:06;15.10;99.90
13211;DHT22;6670;51.53087800;7.23266500;2022-10-31T06:50:43;15.10;99.90
13211;DHT22;6670;51.53087800;7.23266500;2022-10-31T06:53:13;14.90;99.90
13211;DHT22;6670;51.53087800;7.23266500;2022-10-31T06:55:41;14.90;99.90
13211;DHT22;6670;51.53087800;7.23266500;2022-10-31T06:58:10;14.90;99.90
13211;DHT22;6670;51.53087800;7.23266500;2022-10-31T07:00:40;14.80;99.90
13211;DHT22;6670;51.53087800;7.23266500;2022-10-31T07:03:10;14.80;99.90
13211;DHT22;6670;51.53087800;7.23266500;2022-10-31T07:05:38;14.90;99.90
13211;DHT22;6670;51.53087800;7.23266500;2022-10-31T07:08:13;15.00;99.90
13211;DHT22;6670;51.53087800;7.23266500;2022-10-31T07:10:42;15.00;99.90
13211;DHT22;6670;51.53087800;7.23266500;2022-10-31T07:13:13;15.00;99.90
13211;DHT22;6670;51.53087800;7.23266500;2022-10-31T07:15:46;14.90;99.90
13211;DHT22;6670;51.53087800;7.23266500;2022-10-31T07:18:13;14.90;99.90
13211;DHT22;6670;51.53087800;7.23266500;2022-10-31T07:20:41;15.00;99.90
13211;DHT22;6670;51.53087800;7.23266500;2022-10-31T07:23:09;14.90;99.90
13211;DHT22;6670;51.53087800;7.23266500;2022-10-31T07:25:37;14.90;99.90
13211;DHT22;6670;51.53087800;7.23266500;2022-10-31T07:28:04;14.80;99.90
13211;DHT22;6670;51.53087800;7.23266500;2022-10-31T07:30:33;14.80;99.90
13211;DHT22;6670;51.53087800;7.23266500;2022-10-31T07:33:01;15.00;99.90
13211;DHT22;6670;51.53087800;7.23266500;2022-10-31T07:35:45;15.00;99.90
13211;DHT22;6670;51.53087800;7.23266500;2022-10-31T07:38:14;15.10;99.90
13211;DHT22;6670;51.53087800;7.23266500;2022-10-31T07:40:43;15.10;99.90
13211;DHT22;6670;51.53087800;7.23266500;2022-10-31T07:43:11;15.10;99.90
13211;DHT22;6670;51.53087800;7.23266500;2022-10-31T07:45:56;15.10;99.90
13211;DHT22;6670;51.53087800;7.23266500;2022-10-31T07:48:59;15.20;99.90
13211;DHT22;6670;51.53087800;7.23266500;2022-10-31T07:51:46;15.30;99.90
13211;DHT22;6670;51.53087800;7.23266500;2022-10-31T07:54:40;15.50;99.90
13211;DHT22;6670;51.53087800;7.23266500;2022-10-31T07:57:08;15.50;99.90
13211;DHT22;6670;51.53087800;7.23266500;2022-10-31T07:59:37;15.60;99.90
13211;DHT22;6670;51.53087800;7.23266500;2022-10-31T08:02:07;15.60;99.90
13211;DHT22;6670;51.53087800;7.23266500;2022-10-31T08:04:53;15.70;99.90
13211;DHT22;6670;51.53087800;7.23266500;2022-10-31T08:07:41;15.70;99.90
13211;DHT22;6670;51.53087800;7.23266500;2022-10-31T08:10:20;15.70;99.90
13211;DHT22;6670;51.53087800;7.23266500;2022-10-31T08:12:52;15.80;99.90
13211;DHT22;6670;51.53087800;7.23266500;2022-10-31T08:15:31;15.70;99.90
13211;DHT22;6670;51.53087800;7.23266500;2022-10-31T08:18:00;15.70;99.90
13211;DHT22;6670;51.53087800;7.23266500;2022-10-31T08:20:28;15.70;99.90
13211;DHT22;6670;51.53087800;7.23266500;2022-10-31T08:23:01;15.70;99.90
13211;DHT22;6670;51.53087800;7.23266500;2022-10-31T08:25:31;15.90;99.90
13211;DHT22;6670;51.53087800;7.23266500;2022-10-31T08:28:01;15.90;99.90
13211;DHT22;6670;51.53087800;7.23266500;2022-10-31T08:30:30;15.90;99.90
13211;DHT22;6670;51.53087800;7.23266500;2022-10-31T08:33:17;15.80;99.90
13211;DHT22;6670;51.53087800;7.23266500;2022-10-31T08:36:15;15.80;99.90
13211;DHT22;6670;51.53087800;7.23266500;2022-10-31T08:39:07;15.80;99.90
13211;DHT22;6670;51.53087800;7.23266500;2022-10-31T08:41:35;15.80;99.90
13211;DHT22;6670;51.53087800;7.23266500;2022-10-31T08:44:03;16.00;99.90
13211;DHT22;6670;51.53087800;7.23266500;2022-10-31T08:46:31;16.10;99.90
13211;DHT22;6670;51.53087800;7.23266500;2022-10-31T08:49:21;16.30;99.90
13211;DHT22;6670;51.53087800;7.23266500;2022-10-31T08:51:48;16.50;99.90
13211;DHT22;6670;51.53087800;7.23266500;2022-10-31T08:54:18;16.60;99.90
13211;DHT22;6670;51.53087800;7.23266500;2022-10-31T08:57:05;16.50;99.90
13211;DHT22;6670;51.53087800;7.23266500;2022-10-31T08:59:40;16.60;99.90
13211;DHT22;6670;51.53087800;7.23266500;2022-10-31T09:02:20;16.70;99.90
13211;DHT22;6670;51.53087800;7.23266500;2022-10-31T09:04:49;16.70;99.90
13211;DHT22;6670;51.53087800;7.23266500;2022-10-31T09:07:17;16.80;99.90
13211;DHT22;6670;51.53087800;7.23266500;2022-10-31T09:09:46;16.90;99.90
13211;DHT22;6670;51.53087800;7.23266500;2022-10-31T09:12:14;17.10;99.90
13211;DHT22;6670;51.53087800;7.23266500;2022-10-31T09:15:08;17.10;99.90
13211;DHT22;6670;51.53087800;7.23266500;2022-10-31T09:17:55;17.20;99.90
13211;DHT22;6670;51.53087800;7.23266500;2022-10-31T09:20:31;17.30;99.90
13211;DHT22;6670;51.53087800;7.23266500;2022-10-31T09:23:00;17.20;99.90
13211;DHT22;6670;51.53087800;7.23266500;2022-10-31T09:25:30;17.30;99.90
13211;DHT22;6670;51.53087800;7.23266500;2022-10-31T09:28:20;17.30;99.90
13211;DHT22;6670;51.53087800;7.23266500;2022-10-31T09:30:52;17.40;99.90
13211;DHT22;6670;51.53087800;7.23266500;2022-10-31T09:33:49;17.60;99.90
13211;DHT22;6670;51.53087800;7.23266500;2022-10-31T09:36:43;17.70;99.90
13211;DHT22;6670;51.53087800;7.23266500;2022-10-31T09:39:19;17.70;99.90
13211;DHT22;6670;51.53087800;7.23266500;2022-10-31T09:42:10;17.90;99.90
13211;DHT22;6670;51.53087800;7.23266500;2022-10-31T09:44:50;18.00;99.90
13211;DHT22;6670;51.53087800;7.23266500;2022-10-31T09:47:44;18.00;99.90
13211;DHT22;6670;51.53087800;7.23266500;2022-10-31T09:50:38;18.10;99.90
13211;DHT22;6670;51.53087800;7.23266500;2022-10-31T09:53:45;18.20;99.90
13211;DHT22;6670;51.53087800;7.23266500;2022-10-31T09:56:21;18.10;99.90
13211;DHT22;6670;51.53087800;7.23266500;2022-10-31T09:58:53;17.80;99.90
13211;DHT22;6670;51.53087800;7.23266500;2022-10-31T10:01:33;17.70;99.90
13211;DHT22;6670;51.53087800;7.23266500;2022-10-31T10:04:09;18.00;99.90
13211;DHT22;6670;51.53087800;7.23266500;2022-10-31T10:07:18;18.10;99.90
13211;DHT22;6670;51.53087800;7.23266500;2022-10-31T10:10:14;18.20;99.90
13211;DHT22;6670;51.53087800;7.23266500;2022-10-31T10:13:05;18.20;99.90
13211;DHT22;6670;51.53087800;7.23266500;2022-10-31T10:15:49;17.90;99.90
13211;DHT22;6670;51.53087800;7.23266500;2022-10-31T10:18:25;17.70;99.90
13211;DHT22;6670;51.53087800;7.23266500;2022-10-31T10:21:08;17.90;99.90
13211;DHT22;6670;51.53087800;7.23266500;2022-10-31T10:23:46;17.90;99.90
13211;DHT22;6670;51.53087800;7.23266500;2022-10-31T10:26:24;18.00;99.90
13211;DHT22;6670;51.53087800;7.23266500;2022-10-31T10:28:58;17.90;99.90
13211;DHT22;6670;51.53087800;7.23266500;2022-10-31T10:35:07;18.20;99.90
13211;DHT22;6670;51.53087800;7.23266500;2022-10-31T10:41:17;18.10;99.90
13211;DHT22;6670;51.53087800;7.23266500;2022-10-31T10:48:30;18.40;99.90
13211;DHT22;6670;51.53087800;7.23266500;2022-10-31T10:51:01;18.80;99.90
13211;DHT22;6670;51.53087800;7.23266500;2022-10-31T10:53:40;19.00;99.90
13211;DHT22;6670;51.53087800;7.23266500;2022-10-31T10:56:36;18.90;99.90
13211;DHT22;6670;51.53087800;7.23266500;2022-10-31T10:59:09;19.10;99.90
13211;DHT22;6670;51.53087800;7.23266500;2022-10-31T11:01:39;19.40;99.90
13211;DHT22;6670;51.53087800;7.23266500;2022-10-31T11:04:30;19.30;99.90
13211;DHT22;6670;51.53087800;7.23266500;2022-10-31T11:07:00;19.40;99.90
13211;DHT22;6670;51.53087800;7.23266500;2022-10-31T11:09:28;19.40;99.90
13211;DHT22;6670;51.53087800;7.23266500;2022-10-31T11:11:56;19.20;99.90
13211;DHT22;6670;51.53087800;7.23266500;2022-10-31T11:14:24;19.10;99.90
13211;DHT22;6670;51.53087800;7.23266500;2022-10-31T11:16:55;19.10;99.90
13211;DHT22;6670;51.53087800;7.23266500;2022-10-31T11:19:35;19.10;99.90
13211;DHT22;6670;51.53087800;7.23266500;2022-10-31T11:22:06;19.20;99.90
13211;DHT22;6670;51.53087800;7.23266500;2022-10-31T11:24:39;19.10;99.90
13211;DHT22;6670;51.53087800;7.23266500;2022-10-31T11:27:15;19.10;99.90
13211;DHT22;6670;51.53087800;7.23266500;2022-10-31T11:29:43;19.00;99.90
13211;DHT22;6670;51.53087800;7.23266500;2022-10-31T11:32:19;18.90;99.90
13211;DHT22;6670;51.53087800;7.23266500;2022-10-31T11:34:51;18.90;99.90
13211;DHT22;6670;51.53087800;7.23266500;2022-10-31T11:37:22;18.80;99.90
13211;DHT22;6670;51.53087800;7.23266500;2022-10-31T11:39:52;18.60;99.90
13211;DHT22;6670;51.53087800;7.23266500;2022-10-31T11:42:22;18.70;99.90
13211;DHT22;6670;51.53087800;7.23266500;2022-10-31T11:44:51;18.80;99.90
13211;DHT22;6670;51.53087800;7.23266500;2022-10-31T11:47:25;18.90;99.90
13211;DHT22;6670;51.53087800;7.23266500;2022-10-31T11:49:55;18.70;99.90
13211;DHT22;6670;51.53087800;7.23266500;2022-10-31T11:52:25;18.90;99.90
13211;DHT22;6670;51.53087800;7.23266500;2022-10-31T11:54:54;19.00;99.90
13211;DHT22;6670;51.53087800;7.23266500;2022-10-31T11:57:24;18.90;99.90
13211;DHT22;6670;51.53087800;7.23266500;2022-10-31T11:59:53;19.00;99.90
13211;DHT22;6670;51.53087800;7.23266500;2022-10-31T12:02:21;19.10;99.90
13211;DHT22;6670;51.53087800;7.23266500;2022-10-31T12:04:55;19.30;99.90
13211;DHT22;6670;51.53087800;7.23266500;2022-10-31T12:07:25;19.40;99.90
13211;DHT22;6670;51.53087800;7.23266500;2022-10-31T12:09:53;19.20;99.90
13211;DHT22;6670;51.53087800;7.23266500;2022-10-31T12:12:45;19.20;99.90
13211;DHT22;6670;51.53087800;7.23266500;2022-10-31T12:15:27;19.20;99.90
13211;DHT22;6670;51.53087800;7.23266500;2022-10-31T12:18:08;19.20;99.90
13211;DHT22;6670;51.53087800;7.23266500;2022-10-31T12:20:50;19.40;99.90
13211;DHT22;6670;51.53087800;7.23266500;2022-10-31T12:23:48;19.40;99.90
13211;DHT22;6670;51.53087800;7.23266500;2022-10-31T12:26:22;19.80;99.90
13211;DHT22;6670;51.53087800;7.23266500;2022-10-31T12:29:09;19.70;99.90
13211;DHT22;6670;51.53087800;7.23266500;2022-10-31T12:31:51;20.10;99.90
13211;DHT22;6670;51.53087800;7.23266500;2022-10-31T12:34:34;20.20;99.90
13211;DHT22;6670;51.53087800;7.23266500;2022-10-31T12:37:15;20.50;99.90
13211;DHT22;6670;51.53087800;7.23266500;2022-10-31T12:39:54;20.50;99.90
13211;DHT22;6670;51.53087800;7.23266500;2022-10-31T12:43:02;20.90;99.90
13211;DHT22;6670;51.53087800;7.23266500;2022-10-31T12:46:07;20.90;99.90
13211;DHT22;6670;51.53087800;7.23266500;2022-10-31T12:51:54;21.40;99.90
13211;DHT22;6670;51.53087800;7.23266500;2022-10-31T12:57:35;21.30;99.90
13211;DHT22;6670;51.53087800;7.23266500;2022-10-31T13:00:10;21.50;99.90
13211;DHT22;6670;51.53087800;7.23266500;2022-10-31T13:02:41;22.30;99.90
13211;DHT22;6670;51.53087800;7.23266500;2022-10-31T13:05:16;21.70;99.90
13211;DHT22;6670;51.53087800;7.23266500;2022-10-31T13:07:49;22.50;99.90
13211;DHT22;6670;51.53087800;7.23266500;2022-10-31T13:10:21;22.70;99.90
13211;DHT22;6670;51.53087800;7.23266500;2022-10-31T13:13:17;22.60;99.50
13211;DHT22;6670;51.53087800;7.23266500;2022-10-31T13:15:49;22.90;99.40
13211;DHT22;6670;51.53087800;7.23266500;2022-10-31T13:18:25;22.90;98.80
13211;DHT22;6670;51.53087800;7.23266500;2022-10-31T13:20:55;22.30;99.90
13211;DHT22;6670;51.53087800;7.23266500;2022-10-31T13:23:28;22.10;99.90
13211;DHT22;6670;51.53087800;7.23266500;2022-10-31T13:25:59;22.50;99.90
13211;DHT22;6670;51.53087800;7.23266500;2022-10-31T13:28:31;22.40;99.90
13211;DHT22;6670;51.53087800;7.23266500;2022-10-31T13:31:00;22.10;99.90
13211;DHT22;6670;51.53087800;7.23266500;2022-10-31T13:33:31;22.20;99.90
13211;DHT22;6670;51.53087800;7.23266500;2022-10-31T13:36:14;22.00;99.90
13211;DHT22;6670;51.53087800;7.23266500;2022-10-31T13:38:48;21.70;99.90
13211;DHT22;6670;51.53087800;7.23266500;2022-10-31T13:41:27;21.70;99.90
13211;DHT22;6670;51.53087800;7.23266500;2022-10-31T13:44:02;21.60;99.90
13211;DHT22;6670;51.53087800;7.23266500;2022-10-31T13:46:36;21.70;99.90
13211;DHT22;6670;51.53087800;7.23266500;2022-10-31T13:49:04;21.50;99.90
13211;DHT22;6670;51.53087800;7.23266500;2022-10-31T13:51:33;21.50;99.90
13211;DHT22;6670;51.53087800;7.23266500;2022-10-31T13:54:06;21.40;99.90
13211;DHT22;6670;51.53087800;7.23266500;2022-10-31T13:56:48;21.40;99.90
13211;DHT22;6670;51.53087800;7.23266500;2022-10-31T13:59:23;21.40;99.90
13211;DHT22;6670;51.53087800;7.23266500;2022-10-31T14:02:28;21.40;99.90
13211;DHT22;6670;51.53087800;7.23266500;2022-10-31T14:04:59;21.40;99.90
13211;DHT22;6670;51.53087800;7.23266500;2022-10-31T14:07:27;21.20;99.90
13211;DHT22;6670;51.53087800;7.23266500;2022-10-31T14:09:58;21.20;99.90
13211;DHT22;6670;51.53087800;7.23266500;2022-10-31T14:12:29;21.30;99.90
13211;DHT22;6670;51.53087800;7.23266500;2022-10-31T14:15:04;21.40;99.90
13211;DHT22;6670;51.53087800;7.23266500;2022-10-31T14:17:38;21.40;99.90
13211;DHT22;6670;51.53087800;7.23266500;2022-10-31T14:20:33;21.30;99.90
13211;DHT22;6670;51.53087800;7.23266500;2022-10-31T14:23:11;21.20;99.90
13211;DHT22;6670;51.53087800;7.23266500;2022-10-31T14:25:39;21.40;99.90
13211;DHT22;6670;51.53087800;7.23266500;2022-10-31T14:28:20;21.50;99.90
13211;DHT22;6670;51.53087800;7.23266500;2022-10-31T14:30:53;21.60;99.90
13211;DHT22;6670;51.53087800;7.23266500;2022-10-31T14:33:22;21.30;99.90
13211;DHT22;6670;51.53087800;7.23266500;2022-10-31T14:35:56;21.30;99.90
13211;DHT22;6670;51.53087800;7.23266500;2022-10-31T14:38:37;21.50;99.90
13211;DHT22;6670;51.53087800;7.23266500;2022-10-31T14:44:24;21.70;99.90